ESNZ

Details ICAO ESNZ (OSD)
Name Are Ostersund
Region Sweden
Timezone Europe/Stockholm (UTC+2.0)
Plans Departing 28
Arriving 48
Stats Elevation 1,231 ft / 375 m (AMSL)
Location 63.194125° 14.502004°
Runways 1
Magnetic Variation 5.250° E
Sunrise 2018-05-21 01:41:48 UTC / 2018-05-21 03:41:48 Local
Sunset 2018-05-21 20:18:13 UTC / 2018-05-21 22:18:13 Local
Advertisement - Login to hide

Runways

ID Width Length Bearing (true) Bearing (mag) Surface Threshold Offset Overrun Length
12 148 ft / 45 m 8,174 ft / 2,491 m 114.70° 109.45° Asphalt 0 ft / 0 m 0 ft / 0 m
30 148 ft / 45 m 8,174 ft / 2,491 m 294.74° 289.49° Asphalt 0 ft / 0 m 180 ft / 55 m

Approach Navaids

Runway Type Ident Frequency Range Bearing (true) Bearing (mag) Slope Elevation
12 Localiser PC 109.50 MHz 18 nm / 33 km 114.73° 109.48° - 1,231 ft / 375 m (AMSL)
12 Glidescope PC 109.50 MHz 10 nm / 19 km 114.72° 109.47° 3.00° 1,231 ft / 375 m (AMSL)

Map

Weather


0- 5 10 15 20 25 30 35+ Temperature / ° C

Clouds and Precipitation
Forecast for 2018-05-21 12:00 UTC. Updated 11 minutes ago

Ground ~20,000 ft ~40,000 ft Winds

METAR

ESNZ 210920Z VRB03KT CAVOK 19/00 Q1022

TAF

Not found

Frequencies

Tower 135.65 MHz TWR
Tower 121.50 MHz TWR
Tower 130.90 MHz TWR
Warning: Do not use this data for real-world aviation or navigation. No guarantee of current accuracy is given.